Aviation Digital Data Service (ADDS)

Output produced by METARs form (1839 UTC 18 June 2019)
found at http://www.aviationweather.gov/metar/data/
 
KBED 181819Z 00000KT 6SM -RA BKN020 OVC090 22/18 A2994 RMK AO2 P0000 T02220178
KBED 181732Z 1818/1918 00000KT P6SM -RA OVC050 
     FM182000 12004KT 4SM -RA OVC015 
     FM190100 12003KT 6SM BR OVC010 
     FM190400 00000KT 5SM BR OVC008
       
KBVY 181830Z 13004KT 8SM -RA OVC014 18/16 A2995 RMK AO2 RAB1759 P0000 T01830156
KBOS 181818Z 06005KT 1/2SM R04R/P6000FT -RA BR BKN003 OVC012 18/17 A2996 RMK AO2 SFC VIS 2 1/2 RAB1753 P0000 T01830167
KBOS 181732Z 1818/1924 08006KT 6SM -SHRA BR SCT005 OVC025 
     FM182000 10006KT 5SM -RA OVC015 
     FM182300 13005KT 4SM BR OVC010 
     FM190700 10004KT 3SM BR OVC005 
     FM191500 10005KT P6SM BKN008 
     FM191700 10007KT P6SM BKN025
       
KCQX 181833Z AUTO VRB04KT 3SM -RA BR OVC002 16/15 A2999 RMK AO2 RAB1753E11B17 P0000 T01560150
KCEF 181756Z 33004KT 10SM -RA SCT026 OVC065 20/17 A2994 RMK AO2A RAB41 SLP144 P0002 60002 T01970171 10213 20182 58006
TAF KCEF 181800Z 1818/1924 VRB06KT 8000 -SHRA SCT025 OVC060 QNH2989INS 
     TEMPO 1818/1821 BKN015 OVC050 
     BECMG 1820/1821 17006KT 9999 NSW OVC015 QNH2988INS 
     BECMG 1905/1906 00000KT 4800 BR OVC010 QNH2985INS 
     TEMPO 1907/1913 1600 OVC007 
     BECMG 1915/1916 18006KT 9999 NSW OVC020 QNH2977INS TX23/1819Z TN16/1910Z
       
KFIT 181752Z AUTO 07003KT 10SM -RA OVC100 19/14 A2997 RMK AO2 RAB20 SLP147 P0000 60000 T01940144 10211 20189 58008
KHYA 181756Z 14006KT 10SM BKN007 OVC014 19/17 A2996 RMK AO2 RAB33E48 CIG 006V011 SLP147 P0000 60000 T01940167 10211 20183 56006
KHYA 181732Z 1818/1918 18008KT P6SM -RA SCT009 OVC050 
     FM182200 15007KT 3SM BR VCSH OVC009 
     FM190200 12007KT 1SM BR VCSH OVC003 
     FM190700 09005KT 3/4SM -RA BR OVC003 
     FM190900 07005KT 2SM BR OVC003
       
KLWM 181754Z 03003KT 10SM -RA OVC100 19/15 A2998 RMK AO2 RAE00B17 SLP152 P0000 60000 T01940150 10206 20183 55006
KGHG 181835Z AUTO 15005KT 8SM -DZ FEW003 BKN028 BKN041 19/19 A2996 RMK AO2
KACK 181818Z 13006KT 6SM BR OVC002 17/16 A2997 RMK AO2 RAE00 P0000 T01720156 $
KACK 181732Z 1818/1918 14008KT 3/4SM BR VCSH VV002 
     FM181900 14008KT 6SM -RA BR OVC007 
     FM182300 12008KT 1/2SM FG VCSH OVC003
       
KEWB 181801Z 16005KT 10SM -RA BKN009 OVC013 19/17 A2996 RMK AO2 RAB1757 P0000 T01940172
KAQW 181820Z AUTO 11003KT 10SM -RA FEW021 BKN050 OVC100 18/16 A2994 RMK AO2 P0000 T01780161
KOWD 181753Z 18006KT 8SM -RA BKN017 OVC024 22/18 A2996 RMK AO2 RAB42 SLP143 P0000 60000 T02170183 10239 20217 56005
KORE 181752Z AUTO 36004KT 10SM -RA OVC100 19/16 A2997 RMK AO2 SLP147 P0002 60002 T01940156 10211 20178 58007
KPSF 181754Z AUTO 05004KT 9SM -RA FEW006 OVC100 18/16 A2993 RMK AO2 SLP116 P0003 60006 T01830161 10189 20161 58017
KPSF 181720Z 1818/1918 VRB03KT 5SM -SHRA BR BKN025 
     FM182100 VRB03KT P6SM SCT025 BKN250 
     FM190400 00000KT 2SM BR BKN008 OVC015 
     FM191400 16005KT P6SM VCSH SCT008 BKN015
       
KPYM 181830Z AUTO 16004KT 8SM -RA FEW008 BKN015 OVC055 19/18 A2996 RMK AO2 P0001 T01940178
KPVC 181756Z AUTO 00000KT 9SM -RA OVC035 19/18 A2998 RMK AO2 RAE05B36 SLP152 6//// T01890178 10194 20178 56005 PNO $
KBAF 181805Z 04005KT 10SM -RA SCT030 BKN080 OVC110 19/17 A2994 RMK AO2 P0001 T01940167
KBAF 181732Z 1818/1918 02004KT P6SM -RA SCT040 BKN060 OVC110 
     FM182200 13003KT P6SM OVC025 
     FM190700 00000KT 6SM BR BKN015
       
KORH 181754Z 00000KT 7SM -RA FEW050 OVC095 19/16 A2997 RMK AO2 RAB18 SLP147 P0001 60001 T01890161 10206 20172 58006
KORH 181732Z 1818/1918 VRB03KT P6SM -RA OVC035 
     FM182100 15004KT 6SM -RA OVC008 
     FM190200 16003KT P6SM OVC020 
     FM190600 11003KT 4SM BR OVC003